Time;durP1;ratioP1;P1;durP2;ratioP2;P2;SDS_P1;SDS_P2;PMS_P1;PMS_P2;Temp;Humidity;BMP_temperature;BMP_pressure;BME280_temperature;BME280_humidity;BME280_pressure;Samples;Min_cycle;Max_cycle;Signal;HPM_P1;HPM_P2
2023/12/07 00:02:14;;;;;;;15.15;13.88;;;;;;;;;;5026360;28;20056;-74
2023/12/07 00:04:45;;;;;;;13.85;12.73;;;;;;;;;;5032898;28;20057;-75
2023/12/07 00:07:15;;;;;;;13.60;12.40;;;;;;;;;;5039693;28;20048;-74
2023/12/07 00:09:45;;;;;;;13.82;12.63;;;;;;;;;;5043407;28;20492;-75
2023/12/07 00:12:15;;;;;;;13.52;11.93;;;;;;;;;;5041496;28;20060;-75
2023/12/07 00:14:46;;;;;;;21.02;19.20;;;;;;;;;;5043384;28;20448;-75
2023/12/07 00:17:17;;;;;;;14.70;13.57;;;;;;;;;;5042711;28;20511;-75
2023/12/07 00:19:47;;;;;;;12.90;11.88;;;;;;;;;;5042620;28;20048;-75
2023/12/07 00:22:16;;;;;;;15.30;13.50;;;;;;;;;;5042579;28;20103;-75
2023/12/07 00:24:46;;;;;;;13.60;12.23;;;;;;;;;;5041839;28;20060;-75
2023/12/07 00:27:17;;;;;;;14.80;13.30;;;;;;;;;;5041173;28;20633;-75
2023/12/07 00:29:47;;;;;;;12.10;10.82;;;;;;;;;;5043156;28;20049;-75
2023/12/07 00:32:18;;;;;;;15.15;12.52;;;;;;;;;;5026382;28;20060;-76
2023/12/07 00:34:49;;;;;;;11.75;10.85;;;;;;;;;;5029630;28;20057;-75
2023/12/07 00:37:21;;;;;;;11.35;10.30;;;;;;;;;;5022101;28;20512;-75
2023/12/07 00:39:51;;;;;;;14.15;12.40;;;;;;;;;;5022550;28;20064;-74
2023/12/07 00:42:22;;;;;;;12.77;11.88;;;;;;;;;;5022272;28;20603;-75
2023/12/07 00:44:53;;;;;;;14.63;13.40;;;;;;;;;;5022704;28;20033;-75
2023/12/07 00:47:23;;;;;;;15.90;14.70;;;;;;;;;;5005112;28;20057;-76
2023/12/07 00:49:53;;;;;;;13.95;13.00;;;;;;;;;;5026270;28;20049;-74
2023/12/07 00:52:23;;;;;;;15.45;13.82;;;;;;;;;;5024610;28;20060;-75
2023/12/07 00:54:54;;;;;;;13.95;12.88;;;;;;;;;;5022861;28;20060;-74
2023/12/07 00:57:38;;;;;;;14.88;12.77;;;;;;;;;;5022214;28;20049;-75
2023/12/07 01:00:10;;;;;;;12.15;11.18;;;;;;;;;;5022845;28;20041;-74
2023/12/07 01:02:41;;;;;;;22.83;20.10;;;;;;;;;;5022482;28;20421;-74
2023/12/07 01:05:12;;;;;;;15.57;14.25;;;;;;;;;;5022187;28;20049;-74
2023/12/07 01:07:41;;;;;;;15.00;13.60;;;;;;;;;;5022954;28;20520;-75
2023/12/07 01:10:14;;;;;;;14.73;13.55;;;;;;;;;;5022477;28;20058;-74
2023/12/07 01:12:44;;;;;;;14.05;12.85;;;;;;;;;;5022101;28;20053;-75
2023/12/07 01:15:14;;;;;;;15.52;14.25;;;;;;;;;;5022483;28;20057;-75
2023/12/07 01:17:44;;;;;;;16.75;14.98;;;;;;;;;;5022073;28;20057;-75
2023/12/07 01:20:16;;;;;;;16.88;15.38;;;;;;;;;;5023181;28;20081;-74
2023/12/07 01:22:48;;;;;;;14.82;13.65;;;;;;;;;;5022769;28;20041;-75
2023/12/07 01:25:21;;;;;;;16.02;14.73;;;;;;;;;;5022929;28;20060;-74
2023/12/07 01:27:52;;;;;;;14.82;13.50;;;;;;;;;;5022487;28;20045;-74
2023/12/07 01:30:22;;;;;;;14.00;12.80;;;;;;;;;;5022445;28;20056;-75
2023/12/07 01:32:53;;;;;;;17.10;15.27;;;;;;;;;;5022922;28;20049;-75
2023/12/07 01:35:23;;;;;;;15.25;14.13;;;;;;;;;;5023233;28;20042;-75
2023/12/07 01:37:53;;;;;;;16.77;15.05;;;;;;;;;;5021296;28;20049;-75
2023/12/07 01:40:23;;;;;;;15.40;13.80;;;;;;;;;;5022636;28;20041;-74
2023/12/07 01:42:55;;;;;;;17.33;14.00;;;;;;;;;;5022975;28;20049;-74
2023/12/07 01:45:26;;;;;;;14.57;13.05;;;;;;;;;;5023004;28;20484;-75
2023/12/07 01:47:58;;;;;;;17.65;16.25;;;;;;;;;;5022668;28;20538;-74
2023/12/07 01:50:29;;;;;;;14.52;13.63;;;;;;;;;;5021206;28;20049;-74
2023/12/07 01:53:05;;;;;;;14.10;13.30;;;;;;;;;;5022261;28;20050;-74
2023/12/07 01:55:38;;;;;;;14.77;13.57;;;;;;;;;;5022353;28;20053;-74
2023/12/07 01:58:08;;;;;;;13.02;12.13;;;;;;;;;;5022813;28;20057;-74
2023/12/07 02:00:39;;;;;;;16.92;15.82;;;;;;;;;;5022486;28;20053;-76
2023/12/07 02:03:09;;;;;;;13.88;12.88;;;;;;;;;;5022379;28;20125;-74
2023/12/07 02:05:46;;;;;;;14.05;12.95;;;;;;;;;;5022113;28;20064;-75
2023/12/07 02:08:18;;;;;;;14.02;13.10;;;;;;;;;;5022491;28;20050;-74
2023/12/07 02:10:49;;;;;;;14.10;12.90;;;;;;;;;;5021176;28;20068;-74
2023/12/07 02:13:22;;;;;;;15.27;12.82;;;;;;;;;;5022531;28;20049;-74
2023/12/07 02:15:56;;;;;;;14.68;13.38;;;;;;;;;;5021731;28;20823;-74
2023/12/07 02:18:41;;;;;;;14.63;13.50;;;;;;;;;;5019837;28;20064;-75
2023/12/07 02:21:19;;;;;;;13.40;12.38;;;;;;;;;;5021333;28;20061;-74
2023/12/07 02:23:55;;;;;;;13.48;12.52;;;;;;;;;;5021217;28;20050;-74
2023/12/07 02:26:44;;;;;;;13.45;12.35;;;;;;;;;;5020908;28;20524;-74
2023/12/07 02:29:15;;;;;;;11.45;10.45;;;;;;;;;;5021844;28;20050;-74
2023/12/07 02:31:46;;;;;;;11.43;10.60;;;;;;;;;;5021495;28;20045;-74
2023/12/07 02:34:17;;;;;;;11.70;10.57;;;;;;;;;;5021832;28;20061;-74
2023/12/07 02:36:48;;;;;;;16.35;12.32;;;;;;;;;;5020708;28;20056;-74
2023/12/07 02:39:20;;;;;;;13.80;12.90;;;;;;;;;;5020754;28;20064;-74
2023/12/07 02:41:53;;;;;;;14.25;12.98;;;;;;;;;;5020954;28;20041;-74
2023/12/07 02:44:24;;;;;;;11.95;11.05;;;;;;;;;;5021131;28;20049;-75
2023/12/07 02:46:54;;;;;;;20.35;18.60;;;;;;;;;;5019306;28;20054;-75
2023/12/07 02:49:26;;;;;;;12.07;11.27;;;;;;;;;;5021183;28;20048;-74
2023/12/07 02:51:57;;;;;;;14.63;10.77;;;;;;;;;;5024403;28;20048;-74
2023/12/07 02:54:27;;;;;;;13.32;10.98;;;;;;;;;;5024621;28;20049;-74
2023/12/07 02:56:57;;;;;;;15.60;12.10;;;;;;;;;;5024821;28;20049;-75
2023/12/07 02:59:27;;;;;;;12.20;11.40;;;;;;;;;;5023982;28;20061;-74
2023/12/07 03:01:58;;;;;;;12.63;11.63;;;;;;;;;;5023354;28;20500;-75
2023/12/07 03:04:28;;;;;;;13.77;12.73;;;;;;;;;;5024842;28;20045;-74
2023/12/07 03:06:59;;;;;;;15.07;12.80;;;;;;;;;;5024546;28;20045;-74
2023/12/07 03:09:29;;;;;;;13.23;11.95;;;;;;;;;;5024860;28;20048;-74
2023/12/07 03:12:03;;;;;;;14.45;13.30;;;;;;;;;;5024878;28;20053;-74
2023/12/07 03:14:33;;;;;;;19.42;18.00;;;;;;;;;;5024041;28;20429;-74
2023/12/07 03:17:04;;;;;;;20.27;18.65;;;;;;;;;;5022686;28;20420;-74
2023/12/07 03:19:38;;;;;;;12.40;11.18;;;;;;;;;;5024295;28;20060;-74
2023/12/07 03:22:10;;;;;;;14.52;13.57;;;;;;;;;;5023562;28;20056;-75
2023/12/07 03:24:47;;;;;;;14.32;13.23;;;;;;;;;;5023983;28;20050;-74
2023/12/07 03:27:18;;;;;;;19.17;17.60;;;;;;;;;;5024357;28;20436;-74
2023/12/07 03:29:48;;;;;;;12.55;11.57;;;;;;;;;;5024207;28;20034;-74
2023/12/07 03:32:18;;;;;;;15.05;13.60;;;;;;;;;;5024894;28;20056;-74
2023/12/07 03:34:50;;;;;;;12.43;11.52;;;;;;;;;;5024726;28;20049;-74
2023/12/07 03:37:20;;;;;;;14.15;11.93;;;;;;;;;;5024500;28;20048;-74
2023/12/07 03:39:52;;;;;;;14.25;12.80;;;;;;;;;;5024364;28;20447;-74
2023/12/07 03:42:22;;;;;;;18.52;15.68;;;;;;;;;;5024409;28;20378;-74
2023/12/07 03:45:13;;;;;;;12.18;9.45;;;;;;;;;;5024248;28;20517;-74
2023/12/07 03:47:43;;;;;;;13.63;12.15;;;;;;;;;;5023961;28;20049;-74
2023/12/07 03:50:14;;;;;;;13.38;12.38;;;;;;;;;;5024264;28;20056;-74
2023/12/07 03:52:44;;;;;;;18.80;17.67;;;;;;;;;;5024185;28;20447;-74
2023/12/07 03:55:14;;;;;;;13.18;12.27;;;;;;;;;;5023640;28;20049;-74
2023/12/07 03:57:44;;;;;;;12.40;11.60;;;;;;;;;;5024400;28;20049;-74
2023/12/07 04:00:16;;;;;;;14.07;13.07;;;;;;;;;;5024633;28;20048;-74
2023/12/07 04:02:46;;;;;;;13.77;12.73;;;;;;;;;;5021554;28;20053;-74
2023/12/07 04:05:16;;;;;;;13.52;12.52;;;;;;;;;;5025473;28;20052;-74
2023/12/07 04:07:46;;;;;;;13.93;12.88;;;;;;;;;;5027938;28;20053;-74
2023/12/07 04:10:16;;;;;;;14.50;13.15;;;;;;;;;;5029406;28;20049;-74
2023/12/07 04:12:47;;;;;;;14.82;13.65;;;;;;;;;;5027749;28;20054;-74
2023/12/07 04:15:18;;;;;;;12.77;11.95;;;;;;;;;;5025670;28;20056;-75
2023/12/07 04:17:49;;;;;;;14.75;13.65;;;;;;;;;;5025912;28;20056;-74
2023/12/07 04:20:19;;;;;;;15.48;14.23;;;;;;;;;;5024399;28;20041;-74
2023/12/07 04:22:50;;;;;;;14.57;13.07;;;;;;;;;;5023270;28;20064;-74
2023/12/07 04:25:20;;;;;;;12.77;11.85;;;;;;;;;;5024229;28;20050;-74
2023/12/07 04:27:50;;;;;;;15.27;13.90;;;;;;;;;;5024447;28;20042;-74
2023/12/07 04:30:21;;;;;;;14.20;12.90;;;;;;;;;;5022369;28;20065;-74
2023/12/07 04:32:51;;;;;;;17.85;16.65;;;;;;;;;;5023531;28;20444;-74
2023/12/07 04:35:21;;;;;;;15.70;14.63;;;;;;;;;;5024130;28;20045;-74
2023/12/07 04:37:52;;;;;;;13.43;12.32;;;;;;;;;;5022998;28;20060;-74
2023/12/07 04:40:24;;;;;;;14.43;13.15;;;;;;;;;;5022830;28;20045;-74
2023/12/07 04:42:54;;;;;;;15.65;14.07;;;;;;;;;;5021382;28;20049;-74
2023/12/07 04:45:25;;;;;;;13.77;12.63;;;;;;;;;;5021470;28;20045;-74
2023/12/07 04:47:57;;;;;;;14.23;13.32;;;;;;;;;;5022715;28;20505;-74
2023/12/07 04:50:28;;;;;;;17.35;13.65;;;;;;;;;;5023124;28;20053;-74
2023/12/07 04:52:58;;;;;;;16.27;15.07;;;;;;;;;;5022895;28;20512;-74
2023/12/07 04:55:29;;;;;;;17.42;16.33;;;;;;;;;;5021077;28;20053;-74
2023/12/07 04:57:59;;;;;;;18.63;17.35;;;;;;;;;;5023052;28;20042;-73
2023/12/07 05:00:30;;;;;;;17.75;16.67;;;;;;;;;;5022382;28;20049;-74
2023/12/07 05:03:00;;;;;;;20.13;17.77;;;;;;;;;;5023258;28;20518;-74
2023/12/07 05:05:30;;;;;;;18.35;17.15;;;;;;;;;;5022703;28;20056;-74
2023/12/07 05:08:00;;;;;;;19.25;16.63;;;;;;;;;;5022414;28;20048;-74
2023/12/07 05:10:32;;;;;;;17.63;15.90;;;;;;;;;;5023044;28;20045;-74
2023/12/07 05:13:01;;;;;;;13.95;12.77;;;;;;;;;;5022267;28;20041;-74
2023/12/07 05:15:32;;;;;;;15.77;14.55;;;;;;;;;;5021877;28;20049;-74
2023/12/07 05:18:02;;;;;;;14.18;12.93;;;;;;;;;;5022626;28;20128;-74
2023/12/07 05:20:33;;;;;;;15.68;14.15;;;;;;;;;;5022062;28;20053;-74
2023/12/07 05:23:05;;;;;;;13.65;11.55;;;;;;;;;;5022031;28;20730;-74
2023/12/07 05:25:36;;;;;;;13.07;12.07;;;;;;;;;;5021619;28;20061;-74
2023/12/07 05:28:06;;;;;;;13.00;11.02;;;;;;;;;;5022148;28;20060;-74
2023/12/07 05:30:37;;;;;;;13.70;12.45;;;;;;;;;;5022062;28;20052;-74
2023/12/07 05:33:08;;;;;;;13.07;11.90;;;;;;;;;;5022387;28;20049;-74
2023/12/07 05:35:38;;;;;;;13.40;12.60;;;;;;;;;;5022285;28;20041;-74
2023/12/07 05:38:08;;;;;;;12.70;11.90;;;;;;;;;;5020427;28;20065;-74
2023/12/07 05:40:39;;;;;;;12.98;12.15;;;;;;;;;;5022250;28;20053;-74
2023/12/07 05:43:10;;;;;;;15.77;14.45;;;;;;;;;;5022366;28;20046;-74
2023/12/07 05:45:40;;;;;;;22.83;20.63;;;;;;;;;;5021810;28;20417;-74
2023/12/07 05:48:11;;;;;;;15.23;13.93;;;;;;;;;;5022251;28;20053;-74
2023/12/07 05:50:42;;;;;;;15.30;14.10;;;;;;;;;;5021452;28;20045;-74
2023/12/07 05:53:12;;;;;;;17.10;15.90;;;;;;;;;;5022334;28;20599;-74
2023/12/07 05:55:42;;;;;;;14.93;13.98;;;;;;;;;;5021676;28;20045;-74
2023/12/07 05:58:13;;;;;;;18.35;13.02;;;;;;;;;;5021754;28;20046;-74
2023/12/07 06:00:46;;;;;;;16.35;14.82;;;;;;;;;;5022453;28;20061;-74
2023/12/07 06:03:17;;;;;;;17.13;15.93;;;;;;;;;;5021501;28;20456;-75
2023/12/07 06:05:49;;;;;;;14.50;13.05;;;;;;;;;;5021821;28;20056;-75
2023/12/07 06:08:19;;;;;;;14.38;13.05;;;;;;;;;;5022254;28;20099;-74
2023/12/07 06:10:49;;;;;;;14.73;13.05;;;;;;;;;;5022164;28;20128;-75
2023/12/07 06:13:19;;;;;;;14.60;13.50;;;;;;;;;;5020915;28;20060;-74
2023/12/07 06:15:50;;;;;;;15.48;14.23;;;;;;;;;;5021242;28;20054;-75
2023/12/07 06:18:20;;;;;;;16.90;15.38;;;;;;;;;;5021679;28;20054;-74
2023/12/07 06:20:50;;;;;;;15.05;13.90;;;;;;;;;;5021833;28;20068;-74
2023/12/07 06:23:21;;;;;;;13.88;12.07;;;;;;;;;;5020618;28;20520;-75
2023/12/07 06:25:51;;;;;;;16.42;15.13;;;;;;;;;;5023983;28;20056;-74
2023/12/07 06:28:21;;;;;;;15.70;14.57;;;;;;;;;;5026034;28;20576;-74
2023/12/07 06:30:52;;;;;;;13.05;12.00;;;;;;;;;;5025582;28;20057;-75
2023/12/07 06:33:23;;;;;;;15.10;13.70;;;;;;;;;;5025213;28;20049;-74
2023/12/07 06:35:54;;;;;;;13.40;12.55;;;;;;;;;;5025746;28;20041;-74
2023/12/07 06:38:24;;;;;;;14.30;13.40;;;;;;;;;;5025235;28;20053;-75
2023/12/07 06:40:56;;;;;;;13.20;12.10;;;;;;;;;;5025241;28;20045;-74
2023/12/07 06:43:26;;;;;;;14.75;13.45;;;;;;;;;;5024990;28;20060;-74
2023/12/07 06:45:56;;;;;;;14.60;13.57;;;;;;;;;;5024503;28;20053;-75
2023/12/07 06:48:26;;;;;;;14.10;13.02;;;;;;;;;;5024910;28;20056;-74
2023/12/07 06:50:57;;;;;;;19.17;17.75;;;;;;;;;;5025007;28;20817;-74
2023/12/07 06:53:28;;;;;;;16.67;15.07;;;;;;;;;;5024938;28;20045;-74
2023/12/07 06:55:59;;;;;;;16.30;15.10;;;;;;;;;;5024708;28;20045;-74
2023/12/07 06:58:30;;;;;;;13.43;12.43;;;;;;;;;;5025996;28;20045;-74
2023/12/07 07:01:01;;;;;;;14.32;13.27;;;;;;;;;;5025186;28;20499;-74
2023/12/07 07:03:32;;;;;;;16.27;14.73;;;;;;;;;;5025239;28;20049;-74
2023/12/07 07:06:03;;;;;;;15.05;13.77;;;;;;;;;;5024630;28;20037;-74
2023/12/07 07:08:32;;;;;;;14.40;13.38;;;;;;;;;;5024681;28;20049;-74
2023/12/07 07:11:16;;;;;;;14.70;13.23;;;;;;;;;;5024449;28;20056;-74
2023/12/07 07:13:47;;;;;;;15.00;14.00;;;;;;;;;;5024031;28;20046;-74
2023/12/07 07:16:17;;;;;;;15.98;14.65;;;;;;;;;;5025517;28;20072;-74
2023/12/07 07:18:47;;;;;;;16.15;14.80;;;;;;;;;;5024644;28;20041;-74
2023/12/07 07:21:19;;;;;;;15.25;14.18;;;;;;;;;;5022952;28;20546;-75
2023/12/07 07:23:50;;;;;;;14.50;13.20;;;;;;;;;;5024714;28;20650;-74
2023/12/07 07:26:21;;;;;;;14.75;13.55;;;;;;;;;;5024594;28;20338;-74
2023/12/07 07:28:52;;;;;;;16.05;14.98;;;;;;;;;;5024954;28;20057;-74
2023/12/07 07:31:22;;;;;;;14.48;13.40;;;;;;;;;;5023315;28;20053;-74
2023/12/07 07:33:52;;;;;;;15.80;14.57;;;;;;;;;;5024233;28;20049;-74
2023/12/07 07:36:30;;;;;;;14.38;13.05;;;;;;;;;;5024530;28;20057;-75
2023/12/07 07:38:59;;;;;;;13.82;12.88;;;;;;;;;;5024282;28;20058;-75
2023/12/07 07:41:30;;;;;;;12.30;11.45;;;;;;;;;;5024910;28;20068;-74
2023/12/07 07:44:02;;;;;;;13.75;12.65;;;;;;;;;;5024916;28;20049;-75
2023/12/07 07:46:33;;;;;;;14.40;13.20;;;;;;;;;;5023955;28;20805;-73
2023/12/07 07:49:06;;;;;;;14.00;13.00;;;;;;;;;;5024054;28;20500;-75
2023/12/07 07:51:36;;;;;;;15.20;13.70;;;;;;;;;;5024130;28;20053;-74
2023/12/07 07:54:06;;;;;;;13.32;12.27;;;;;;;;;;5023608;28;20051;-75
2023/12/07 07:56:36;;;;;;;13.63;12.82;;;;;;;;;;5024430;28;20049;-75
2023/12/07 07:59:07;;;;;;;18.35;17.10;;;;;;;;;;5023486;28;20049;-74
2023/12/07 08:01:37;;;;;;;17.15;15.85;;;;;;;;;;5023501;28;20046;-74
2023/12/07 08:04:07;;;;;;;23.95;22.38;;;;;;;;;;5023960;28;20432;-74
2023/12/07 08:06:39;;;;;;;20.52;19.33;;;;;;;;;;5023878;28;20050;-75
2023/12/07 08:09:09;;;;;;;18.73;17.33;;;;;;;;;;5022468;28;20056;-75
2023/12/07 08:11:40;;;;;;;23.17;21.75;;;;;;;;;;5023980;28;20405;-74
2023/12/07 08:14:11;;;;;;;19.80;18.65;;;;;;;;;;5021670;28;20068;-75
2023/12/07 08:16:46;;;;;;;20.15;18.60;;;;;;;;;;5023583;28;20532;-75
2023/12/07 08:19:19;;;;;;;20.23;18.83;;;;;;;;;;5023920;28;20103;-75
2023/12/07 08:21:51;;;;;;;24.50;22.40;;;;;;;;;;5023818;28;20049;-75
2023/12/07 08:24:21;;;;;;;27.25;25.60;;;;;;;;;;5022531;28;20420;-75
2023/12/07 08:26:51;;;;;;;22.65;20.92;;;;;;;;;;5023039;28;20546;-75
2023/12/07 08:29:22;;;;;;;30.40;28.50;;;;;;;;;;5023450;28;20045;-74
2023/12/07 08:31:52;;;;;;;20.60;18.90;;;;;;;;;;5023175;28;20056;-74
2023/12/07 08:34:24;;;;;;;24.63;23.00;;;;;;;;;;5023195;28;20053;-75
2023/12/07 08:36:54;;;;;;;19.83;18.67;;;;;;;;;;5023428;28;20052;-75
2023/12/07 08:39:26;;;;;;;21.52;19.80;;;;;;;;;;5023216;28;20056;-75
2023/12/07 08:41:56;;;;;;;21.08;19.48;;;;;;;;;;5023371;28;20045;-75
2023/12/07 08:44:26;;;;;;;23.48;22.13;;;;;;;;;;5023101;28;20045;-75
2023/12/07 08:46:57;;;;;;;24.17;22.38;;;;;;;;;;5022734;28;20061;-75
2023/12/07 08:49:28;;;;;;;27.98;26.38;;;;;;;;;;5022533;28;20048;-75
2023/12/07 08:51:59;;;;;;;33.42;31.58;;;;;;;;;;5023590;28;20416;-76
2023/12/07 08:54:49;;;;;;;21.60;20.20;;;;;;;;;;5023077;28;20041;-75
2023/12/07 08:57:20;;;;;;;29.90;28.05;;;;;;;;;;5023110;28;20045;-76
2023/12/07 08:59:51;;;;;;;23.13;21.67;;;;;;;;;;5022745;28;20504;-75
2023/12/07 09:02:21;;;;;;;28.90;26.85;;;;;;;;;;5022819;28;20041;-76
2023/12/07 09:05:11;;;;;;;27.65;25.75;;;;;;;;;;5023766;28;20541;-75
2023/12/07 09:07:42;;;;;;;19.25;17.80;;;;;;;;;;5023021;28;20049;-75
2023/12/07 09:10:12;;;;;;;17.77;16.35;;;;;;;;;;5023085;28;20037;-75
2023/12/07 09:12:42;;;;;;;16.23;15.13;;;;;;;;;;5022180;28;20164;-75
2023/12/07 09:15:13;;;;;;;17.77;16.48;;;;;;;;;;5022940;28;20053;-76
2023/12/07 09:17:43;;;;;;;17.40;16.27;;;;;;;;;;5022989;28;20068;-78
2023/12/07 09:20:14;;;;;;;17.90;16.70;;;;;;;;;;5021941;28;20054;-75
2023/12/07 09:22:46;;;;;;;20.92;19.52;;;;;;;;;;5022765;28;20053;-75
2023/12/07 09:25:17;;;;;;;18.50;17.25;;;;;;;;;;5022668;28;20044;-75
2023/12/07 09:27:48;;;;;;;21.23;19.83;;;;;;;;;;5022627;28;20531;-75
2023/12/07 09:30:19;;;;;;;21.15;19.83;;;;;;;;;;5022405;28;20809;-76
2023/12/07 09:32:50;;;;;;;17.80;16.80;;;;;;;;;;5020671;28;20650;-74
2023/12/07 09:35:20;;;;;;;21.80;20.25;;;;;;;;;;5022057;28;20049;-75
2023/12/07 09:37:51;;;;;;;19.65;18.35;;;;;;;;;;5021965;28;20038;-75
2023/12/07 09:40:23;;;;;;;29.50;27.48;;;;;;;;;;5021870;28;20412;-74
2023/12/07 09:42:53;;;;;;;21.60;20.08;;;;;;;;;;5021993;28;20050;-74
2023/12/07 09:45:23;;;;;;;18.58;16.95;;;;;;;;;;5020174;28;20050;-76
2023/12/07 09:47:57;;;;;;;23.63;22.23;;;;;;;;;;5021261;28;20416;-76
2023/12/07 09:50:28;;;;;;;14.05;13.23;;;;;;;;;;5021891;28;20045;-79
2023/12/07 09:52:59;;;;;;;17.33;16.38;;;;;;;;;;5021019;28;20053;-74
2023/12/07 09:55:36;;;;;;;12.32;11.38;;;;;;;;;;5021525;28;20078;-74
2023/12/07 09:58:07;;;;;;;18.95;17.45;;;;;;;;;;5022591;28;20883;-76
2023/12/07 10:00:38;;;;;;;19.13;17.70;;;;;;;;;;5020882;28;20493;-74
2023/12/07 10:03:22;;;;;;;11.70;10.90;;;;;;;;;;5021917;28;20049;-74
2023/12/07 10:05:59;;;;;;;12.38;11.07;;;;;;;;;;5021905;28;20057;-75
2023/12/07 10:08:31;;;;;;;15.93;14.93;;;;;;;;;;5021928;28;20409;-76
2023/12/07 10:11:10;;;;;;;13.07;12.15;;;;;;;;;;5022171;28;20041;-74
2023/12/07 10:13:41;;;;;;;12.15;11.18;;;;;;;;;;5020005;28;20060;-76
2023/12/07 10:16:15;;;;;;;12.73;10.65;;;;;;;;;;5021532;28;20060;-76
2023/12/07 10:18:45;;;;;;;10.93;10.00;;;;;;;;;;5021307;28;20049;-80
2023/12/07 10:21:16;;;;;;;11.63;10.88;;;;;;;;;;5021721;28;20049;-76
2023/12/07 10:23:47;;;;;;;14.32;12.55;;;;;;;;;;5021257;28;20072;-75
2023/12/07 10:26:21;;;;;;;17.67;13.15;;;;;;;;;;5021590;28;20374;-75
2023/12/07 10:28:54;;;;;;;16.73;15.15;;;;;;;;;;5021725;28;20416;-79
2023/12/07 10:31:26;;;;;;;13.73;12.23;;;;;;;;;;5021141;28;20388;-75
2023/12/07 10:33:56;;;;;;;11.80;10.65;;;;;;;;;;5021418;28;20069;-75
2023/12/07 10:36:28;;;;;;;12.60;11.75;;;;;;;;;;5021574;28;20055;-75
2023/12/07 10:38:59;;;;;;;16.55;15.43;;;;;;;;;;5021347;28;20064;-73
2023/12/07 10:41:30;;;;;;;10.85;9.98;;;;;;;;;;5004094;28;20064;-75
2023/12/07 10:44:07;;;;;;;10.85;9.95;;;;;;;;;;5021688;28;20084;-82
2023/12/07 10:46:41;;;;;;;10.88;10.13;;;;;;;;;;5021231;28;20056;-75
2023/12/07 10:49:19;;;;;;;10.80;9.70;;;;;;;;;;5021775;28;20052;-76
2023/12/07 10:52:07;;;;;;;12.25;9.63;;;;;;;;;;5021239;28;20064;-75
2023/12/07 10:54:56;;;;;;;14.43;10.35;;;;;;;;;;5021884;28;20057;-81
2023/12/07 10:57:31;;;;;;;12.10;10.27;;;;;;;;;;5021066;28;20056;-76
2023/12/07 11:00:09;;;;;;;10.73;10.02;;;;;;;;;;5020686;28;20188;-75
2023/12/07 11:02:41;;;;;;;11.45;10.40;;;;;;;;;;5019104;28;20060;-76
2023/12/07 11:05:12;;;;;;;11.88;10.93;;;;;;;;;;5022089;28;20053;-75
2023/12/07 11:08:08;;;;;;;8.77;8.18;;;;;;;;;;5020093;28;20049;-76
2023/12/07 11:11:33;;;;;;;9.88;8.98;;;;;;;;;;5022795;28;20053;-76
2023/12/07 11:14:08;;;;;;;11.52;10.48;;;;;;;;;;5023625;28;20088;-75
2023/12/07 11:16:46;;;;;;;12.88;11.68;;;;;;;;;;5026704;28;20045;-75
2023/12/07 11:19:43;;;;;;;11.18;10.23;;;;;;;;;;5023527;28;20538;-76
2023/12/07 11:22:14;;;;;;;10.10;9.20;;;;;;;;;;5025475;28;20049;-78
2023/12/07 11:25:05;;;;;;;26.73;11.80;;;;;;;;;;5026194;28;20045;-77
2023/12/07 11:27:38;;;;;;;13.63;12.50;;;;;;;;;;5025693;28;20417;-76
2023/12/07 11:30:10;;;;;;;13.48;12.48;;;;;;;;;;5025434;28;20500;-77
2023/12/07 11:32:42;;;;;;;11.15;10.13;;;;;;;;;;5024929;28;20053;-75
2023/12/07 11:35:13;;;;;;;12.73;10.32;;;;;;;;;;5024941;28;20523;-76
2023/12/07 11:38:11;;;;;;;11.18;10.27;;;;;;;;;;5024886;28;20042;-77
2023/12/07 11:40:43;;;;;;;12.02;10.82;;;;;;;;;;5024191;28;20496;-77
2023/12/07 11:43:43;;;;;;;10.20;9.40;;;;;;;;;;5023967;28;20050;-75
2023/12/07 11:46:16;;;;;;;10.75;9.95;;;;;;;;;;5024043;28;20053;-77
2023/12/07 11:48:49;;;;;;;13.35;12.05;;;;;;;;;;5024037;28;20050;-78
2023/12/07 11:51:20;;;;;;;16.05;14.65;;;;;;;;;;5024611;28;20049;-76
2023/12/07 11:53:51;;;;;;;7.72;7.22;;;;;;;;;;5024356;28;20057;-76
2023/12/07 11:56:21;;;;;;;15.88;14.00;;;;;;;;;;5024512;28;20037;-76
2023/12/07 11:58:52;;;;;;;14.13;12.98;;;;;;;;;;5023881;28;20042;-76
2023/12/07 12:01:27;;;;;;;11.52;10.70;;;;;;;;;;5023829;28;20045;-77
2023/12/07 12:03:57;;;;;;;17.20;16.10;;;;;;;;;;5023721;28;20427;-76
2023/12/07 12:06:30;;;;;;;18.17;16.80;;;;;;;;;;5022513;28;20073;-78
2023/12/07 12:09:00;;;;;;;12.13;11.02;;;;;;;;;;5023903;28;20045;-78
2023/12/07 12:11:31;;;;;;;12.35;8.38;;;;;;;;;;5006831;28;20527;-75
2023/12/07 12:14:02;;;;;;;15.52;14.38;;;;;;;;;;5021917;28;20489;-75
2023/12/07 12:16:33;;;;;;;19.10;17.48;;;;;;;;;;5025342;28;20675;-75
2023/12/07 12:19:03;;;;;;;13.35;12.45;;;;;;;;;;5023883;28;20050;-76
2023/12/07 12:21:40;;;;;;;14.88;13.80;;;;;;;;;;5023689;28;20441;-76
2023/12/07 12:24:11;;;;;;;13.02;11.98;;;;;;;;;;5022244;28;20046;-78
2023/12/07 12:26:44;;;;;;;14.70;13.52;;;;;;;;;;5023332;28;20068;-74
2023/12/07 12:29:15;;;;;;;13.60;12.40;;;;;;;;;;5023846;28;20120;-72
2023/12/07 12:31:56;;;;;;;9.25;8.57;;;;;;;;;;5023557;28;20054;-73
2023/12/07 12:34:27;;;;;;;7.68;6.70;;;;;;;;;;5023496;28;20049;-75
2023/12/07 12:36:58;;;;;;;8.85;8.25;;;;;;;;;;5024848;28;20131;-74
2023/12/07 12:39:29;;;;;;;11.80;9.82;;;;;;;;;;5023850;28;20054;-74
2023/12/07 12:42:04;;;;;;;13.45;12.55;;;;;;;;;;5023039;28;20412;-76
2023/12/07 12:44:35;;;;;;;8.70;8.00;;;;;;;;;;5023168;28;20041;-76
2023/12/07 12:47:10;;;;;;;9.90;7.72;;;;;;;;;;5021074;28;20056;-76
2023/12/07 12:49:43;;;;;;;14.90;12.88;;;;;;;;;;5022064;28;20049;-75
2023/12/07 12:52:18;;;;;;;11.57;10.25;;;;;;;;;;5022574;28;20049;-78
2023/12/07 12:54:48;;;;;;;14.73;13.43;;;;;;;;;;5023439;28;20046;-74
2023/12/07 12:57:19;;;;;;;10.27;9.57;;;;;;;;;;5023550;28;20629;-75
2023/12/07 12:59:51;;;;;;;14.02;13.23;;;;;;;;;;5023389;28;20042;-76
2023/12/07 13:02:23;;;;;;;14.35;13.35;;;;;;;;;;5023877;28;20866;-74
2023/12/07 13:04:53;;;;;;;11.90;10.88;;;;;;;;;;5022784;28;20508;-77
2023/12/07 13:07:28;;;;;;;11.77;10.80;;;;;;;;;;5022782;28;20057;-76
2023/12/07 13:09:58;;;;;;;11.32;10.63;;;;;;;;;;5022144;28;20045;-73
2023/12/07 13:12:30;;;;;;;12.10;11.05;;;;;;;;;;5022714;28;20041;-73
2023/12/07 13:15:01;;;;;;;11.05;10.45;;;;;;;;;;5022897;28;20076;-75
2023/12/07 13:17:32;;;;;;;11.05;10.25;;;;;;;;;;5023256;28;20053;-72
2023/12/07 13:20:02;;;;;;;14.88;13.98;;;;;;;;;;5022504;28;20053;-73
2023/12/07 13:22:33;;;;;;;17.05;15.73;;;;;;;;;;5022003;28;20413;-73
2023/12/07 13:25:04;;;;;;;7.18;6.55;;;;;;;;;;5022401;28;20156;-72
2023/12/07 13:27:34;;;;;;;14.32;13.27;;;;;;;;;;5022534;28;20045;-73
2023/12/07 13:30:06;;;;;;;18.67;17.45;;;;;;;;;;5022345;28;20045;-77
2023/12/07 13:32:37;;;;;;;12.50;11.63;;;;;;;;;;5023872;28;20607;-75
2023/12/07 13:35:07;;;;;;;15.02;13.80;;;;;;;;;;5023109;28;20049;-76
2023/12/07 13:37:39;;;;;;;15.48;14.25;;;;;;;;;;5022907;28;20049;-72
2023/12/07 13:40:10;;;;;;;31.23;29.30;;;;;;;;;;5022723;28;20041;-74
2023/12/07 13:42:40;;;;;;;13.98;12.85;;;;;;;;;;5020904;28;20523;-74
2023/12/07 13:45:11;;;;;;;12.98;11.95;;;;;;;;;;5022410;28;20037;-75
2023/12/07 13:47:41;;;;;;;16.50;15.20;;;;;;;;;;5022738;28;20049;-74
2023/12/07 13:50:12;;;;;;;13.85;12.55;;;;;;;;;;5023139;28;20493;-75
2023/12/07 13:52:43;;;;;;;47.10;44.08;;;;;;;;;;5022050;28;20404;-74
2023/12/07 13:55:13;;;;;;;13.82;12.93;;;;;;;;;;5021931;28;20532;-74
2023/12/07 13:57:43;;;;;;;14.38;13.48;;;;;;;;;;5021493;28;20042;-72
2023/12/07 14:00:15;;;;;;;11.73;11.02;;;;;;;;;;5021298;28;20049;-74
2023/12/07 14:02:45;;;;;;;12.75;11.85;;;;;;;;;;5021874;28;20054;-72
2023/12/07 14:05:16;;;;;;;14.02;12.85;;;;;;;;;;5021982;28;20049;-78
2023/12/07 14:07:52;;;;;;;11.80;10.98;;;;;;;;;;5021530;28;20069;-72
2023/12/07 14:10:23;;;;;;;16.20;15.30;;;;;;;;;;5019712;28;20406;-76
2023/12/07 14:12:53;;;;;;;13.07;11.98;;;;;;;;;;5021746;28;20065;-73
2023/12/07 14:15:23;;;;;;;10.13;9.27;;;;;;;;;;5022100;28;20049;-75
2023/12/07 14:18:10;;;;;;;16.23;15.32;;;;;;;;;;5021782;28;20057;-77
2023/12/07 14:20:42;;;;;;;13.48;12.15;;;;;;;;;;5021553;28;20052;-73
2023/12/07 14:23:33;;;;;;;17.63;16.25;;;;;;;;;;5021511;28;20436;-77
2023/12/07 14:26:07;;;;;;;17.65;16.40;;;;;;;;;;5018550;28;20057;-74
2023/12/07 14:28:38;;;;;;;41.13;38.42;;;;;;;;;;5018757;28;20412;-79
2023/12/07 14:31:16;;;;;;;10.25;9.50;;;;;;;;;;5018663;28;20659;-75
2023/12/07 14:33:47;;;;;;;12.02;11.30;;;;;;;;;;5019387;28;20045;-72
2023/12/07 14:36:17;;;;;;;10.75;9.95;;;;;;;;;;5018763;28;20096;-78
2023/12/07 14:38:48;;;;;;;10.23;9.50;;;;;;;;;;5019057;28;20500;-73
2023/12/07 14:41:19;;;;;;;10.35;9.70;;;;;;;;;;5019232;28;20045;-74
2023/12/07 14:43:50;;;;;;;16.27;15.35;;;;;;;;;;5018757;28;20420;-74
2023/12/07 14:46:21;;;;;;;9.88;9.13;;;;;;;;;;5019990;28;20049;-73
2023/12/07 14:48:51;;;;;;;9.95;9.35;;;;;;;;;;5022743;28;20743;-75